Time;durP1;ratioP1;P1;durP2;ratioP2;P2;SDS_P1;SDS_P2;PMS_P1;PMS_P2;Temp;Humidity;BMP_temperature;BMP_pressure;BME280_temperature;BME280_humidity;BME280_pressure;Samples;Min_cycle;Max_cycle;Signal;HPM_P1;HPM_P2
2021/01/05 00:01:43;;;;;;;21.82;12.07;;;;;;;-0.01;88.46;101158.30;1759676;79;21180;-73
2021/01/05 00:04:11;;;;;;;35.05;17.70;;;;;;;-0.02;88.46;101162.74;1759400;80;21293;-74
2021/01/05 00:06:39;;;;;;;36.17;18.20;;;;;;;-0.02;88.47;101179.00;1759530;80;21655;-72
2021/01/05 00:09:06;;;;;;;35.08;17.05;;;;;;;0.02;88.50;101174.22;1758123;81;21915;-71
2021/01/05 00:11:34;;;;;;;40.43;19.90;;;;;;;0.05;88.45;101179.94;1760426;81;21211;-74
2021/01/05 00:14:02;;;;;;;41.80;20.43;;;;;;;0.04;88.44;101179.63;1754859;79;21657;-72
2021/01/05 00:16:30;;;;;;;44.18;22.73;;;;;;;0.06;88.48;101176.31;1757476;81;21643;-70
2021/01/05 00:18:58;;;;;;;36.83;17.07;;;;;;;0.12;88.53;101178.25;1764687;80;21650;-70
2021/01/05 00:21:25;;;;;;;41.45;19.98;;;;;;;0.16;88.50;101171.66;1764917;80;21287;-72
2021/01/05 00:23:57;;;;;;;43.40;20.85;;;;;;;0.19;88.42;101173.13;1758580;79;21639;-71
2021/01/05 00:26:26;;;;;;;47.08;21.23;;;;;;;0.20;88.34;101171.66;1750392;80;21144;-72
2021/01/05 00:28:53;;;;;;;35.75;16.87;;;;;;;0.16;88.28;101172.97;1754826;79;21212;-72
2021/01/05 00:31:22;;;;;;;52.65;22.95;;;;;;;0.11;88.27;101167.44;1759330;79;21679;-72
2021/01/05 00:33:49;;;;;;;49.60;22.02;;;;;;;0.09;88.30;101172.03;1759092;80;21748;-72
2021/01/05 00:36:17;;;;;;;39.20;18.37;;;;;;;0.10;88.36;101172.37;1759452;79;21640;-71
2021/01/05 00:38:45;;;;;;;43.58;20.88;;;;;;;0.09;88.36;101171.22;1758430;81;21687;-73
2021/01/05 00:41:12;;;;;;;44.83;20.90;;;;;;;0.04;88.43;101169.13;1740550;81;21190;-72
2021/01/05 00:43:40;;;;;;;37.58;18.57;;;;;;;0.04;88.48;101166.50;1757718;79;21203;-73
2021/01/05 00:46:09;;;;;;;45.75;20.02;;;;;;;0.05;88.50;101172.56;1757053;79;21985;-73
2021/01/05 00:48:37;;;;;;;47.25;23.15;;;;;;;0.04;88.50;101174.38;1758527;81;21227;-72
2021/01/05 00:51:06;;;;;;;47.25;22.00;;;;;;;0.05;88.55;101173.88;1742696;79;21133;-71
2021/01/05 00:53:34;;;;;;;43.75;20.97;;;;;;;0.09;88.60;101182.54;1758479;79;21203;-71
2021/01/05 00:56:04;;;;;;;33.63;16.07;;;;;;;0.11;88.54;101176.63;1757557;79;21192;-75
2021/01/05 00:58:33;;;;;;;46.35;21.12;;;;;;;0.10;88.51;101172.37;1762529;81;21555;-72
2021/01/05 01:01:01;;;;;;;43.85;21.52;;;;;;;0.04;88.47;101170.44;1738473;79;21212;-72
2021/01/05 01:03:29;;;;;;;40.67;18.90;;;;;;;-0.01;88.48;101175.38;1759097;80;21513;-72
2021/01/05 01:05:57;;;;;;;33.60;17.07;;;;;;;-0.04;88.57;101167.84;1750021;80;21029;-72
2021/01/05 01:08:26;;;;;;;35.45;16.23;;;;;;;-0.04;88.61;101177.03;1759807;81;21742;-71
2021/01/05 01:10:54;;;;;;;40.83;21.35;;;;;;;-0.05;88.66;101174.09;1752143;81;22099;-72
2021/01/05 01:13:25;;;;;;;27.73;14.07;;;;;;;-0.06;88.67;101169.84;1757662;79;21180;-72
2021/01/05 01:15:53;;;;;;;44.40;21.37;;;;;;;-0.05;88.77;101168.34;1758526;81;21200;-72
2021/01/05 01:18:21;;;;;;;41.23;21.10;;;;;;;-0.03;88.76;101162.93;1759414;79;21172;-73
2021/01/05 01:20:49;;;;;;;42.05;20.97;;;;;;;-0.04;88.71;101157.33;1752692;81;21246;-72
2021/01/05 01:23:19;;;;;;;40.48;21.52;;;;;;;-0.04;88.77;101152.89;1759430;79;21795;-71
2021/01/05 01:25:49;;;;;;;42.17;20.97;;;;;;;-0.06;88.77;101150.14;1758779;79;21687;-71
2021/01/05 01:28:19;;;;;;;38.08;20.20;;;;;;;-0.10;88.73;101149.67;1760527;81;22254;-72
2021/01/05 01:30:47;;;;;;;36.45;19.20;;;;;;;-0.15;88.71;101147.23;1756386;79;21180;-71
2021/01/05 01:33:16;;;;;;;41.13;20.82;;;;;;;-0.19;88.68;101149.88;1760902;81;21188;-73
2021/01/05 01:35:45;;;;;;;33.85;17.55;;;;;;;-0.22;88.72;101148.41;1759317;79;21383;-71
2021/01/05 01:38:14;;;;;;;40.52;20.32;;;;;;;-0.24;88.76;101150.38;1757732;80;21232;-71
2021/01/05 01:40:54;;;;;;;40.28;21.05;;;;;;;-0.22;88.79;101151.53;1760197;81;21204;-73
2021/01/05 01:43:34;;;;;;;34.33;18.80;;;;;;;-0.15;88.84;101147.23;1833336;77;23344;-72
2021/01/05 01:46:06;;;;;;;37.95;20.77;;;;;;;-0.16;88.87;101149.55;1791673;79;21143;-72
2021/01/05 01:48:35;;;;;;;36.83;18.25;;;;;;;-0.18;88.86;101148.88;1799351;79;21375;-72
2021/01/05 01:51:04;;;;;;;40.65;21.10;;;;;;;-0.20;88.79;101153.48;1769637;79;21772;-72
2021/01/05 01:54:19;;;;;;;31.35;17.27;;;;;;;-0.25;88.79;101149.56;1795665;79;21183;-72
2021/01/05 01:57:23;;;;;;;;;;;;;;;-0.27;88.82;101158.09;1793813;78;21146;-72
2021/01/05 02:00:31;;;;;;;38.40;20.45;;;;;;;-0.29;88.85;101146.97;1800457;78;20621;-72
2021/01/05 02:03:22;;;;;;;42.43;22.15;;;;;;;-0.28;88.88;101149.09;1796771;79;22129;-71
2021/01/05 02:06:28;;;;;;;36.13;19.20;;;;;;;-0.25;88.88;101148.25;1784644;80;21179;-71
2021/01/05 02:09:30;;;;;;;40.45;19.77;;;;;;;-0.22;88.90;101147.09;1807074;79;21178;-71
2021/01/05 02:12:27;;;;;;;42.00;22.57;;;;;;;-0.22;88.83;101141.03;1808621;79;21112;-71
2021/01/05 02:15:20;;;;;;;36.15;19.02;;;;;;;-0.27;88.83;101140.22;1799086;78;21162;-70
2021/01/05 02:18:29;;;;;;;37.45;19.07;;;;;;;-0.30;88.89;101144.00;1806151;79;21226;-71
2021/01/05 02:25:29;;;;;;;33.90;18.42;;;;;;;-0.34;88.98;101129.59;1795730;79;21175;-72
2021/01/05 02:28:02;;;;;;;41.33;21.17;;;;;;;-0.32;89.11;101134.18;1798613;79;21242;-71
2021/01/05 02:30:38;;;;;;;37.65;21.12;;;;;;;-0.31;89.10;101127.94;1786720;79;21092;-70
2021/01/05 02:33:44;;;;;;;38.67;19.85;;;;;;;-0.30;89.07;101117.75;1790225;78;21190;-71
2021/01/05 02:36:44;;;;;;;39.40;22.42;;;;;;;-0.31;89.06;101112.69;1796645;79;21560;-71
2021/01/05 02:40:39;;;;;;;43.37;22.13;;;;;;;-0.25;89.13;101110.19;1791476;78;23569;-71
2021/01/05 02:44:06;;;;;;;39.30;20.43;;;;;;;-0.29;89.14;101111.53;1774854;80;21212;-73
2021/01/05 02:46:58;;;;;;;37.40;20.17;;;;;;;-0.17;89.23;101105.88;1801903;78;23544;-71
2021/01/05 02:49:47;;;;;;;40.15;20.97;;;;;;;-0.20;89.22;101106.22;1763209;80;21172;-71
2021/01/05 02:53:08;;;;;;;37.53;20.85;;;;;;;-0.18;89.23;101097.69;1787533;80;21168;-70
2021/01/05 02:56:25;;;;;;;32.80;17.50;;;;;;;-0.18;89.21;101084.56;1778642;78;21196;-74
2021/01/05 02:59:26;;;;;;;36.45;20.10;;;;;;;-0.17;89.21;101084.87;1761753;79;21204;-71
2021/01/05 03:02:48;;;;;;;35.25;18.65;;;;;;;-0.20;89.16;101078.66;1797166;79;21211;-74
2021/01/05 03:05:34;;;;;;;32.17;17.67;;;;;;;-0.20;89.16;101082.59;1779075;79;21199;-72
2021/01/05 03:08:22;;;;;;;35.95;18.60;;;;;;;-0.21;89.19;101080.97;1790663;79;21781;-72
2021/01/05 03:11:12;;;;;;;31.23;16.15;;;;;;;-0.25;89.25;101067.37;1784365;79;21195;-71
2021/01/05 03:14:03;;;;;;;34.95;17.87;;;;;;;-0.24;89.27;101065.88;1786184;79;21184;-70
2021/01/05 03:16:54;;;;;;;31.77;16.12;;;;;;;-0.21;89.30;101059.97;1790183;79;21562;-70
2021/01/05 03:20:01;;;;;;;28.12;15.65;;;;;;;-0.25;89.32;101062.94;1798557;78;21187;-70
2021/01/05 03:22:55;;;;;;;27.87;14.15;;;;;;;-0.30;89.31;101056.56;1802048;78;21216;-70
2021/01/05 03:25:46;;;;;;;33.73;18.92;;;;;;;-0.30;89.38;101051.31;1776811;80;21183;-71
2021/01/05 03:28:32;;;;;;;28.77;15.15;;;;;;;-0.29;89.45;101049.84;1771703;80;21133;-70
2021/01/05 03:31:35;;;;;;;27.37;14.13;;;;;;;-0.28;89.51;101041.47;1798318;79;21160;-71
2021/01/05 03:34:22;;;;;;;27.70;15.78;;;;;;;-0.28;89.47;101051.97;1786649;80;21171;-71
2021/01/05 03:37:20;;;;;;;25.70;14.50;;;;;;;-0.30;89.41;101051.31;1761092;79;23004;-73
2021/01/05 03:40:10;;;;;;;24.60;14.13;;;;;;;-0.38;89.41;101056.12;1737475;80;21026;-72
2021/01/05 03:42:56;;;;;;;27.45;15.50;;;;;;;-0.38;89.48;101060.06;1717131;81;21382;-72
2021/01/05 03:45:43;;;;;;;29.05;15.48;;;;;;;-0.35;89.52;101071.53;1739405;81;21754;-72
2021/01/05 03:48:29;;;;;;;25.45;13.53;;;;;;;-0.36;89.57;101069.91;1748740;81;21211;-72
2021/01/05 03:51:15;;;;;;;25.75;14.95;;;;;;;-0.35;89.61;101070.22;1737866;81;21156;-73
2021/01/05 03:54:01;;;;;;;26.02;14.93;;;;;;;-0.35;89.59;101066.28;1757245;81;21080;-72
2021/01/05 03:56:48;;;;;;;21.27;12.20;;;;;;;-0.35;89.63;101064.97;1751765;81;21160;-72
2021/01/05 03:59:34;;;;;;;26.40;14.53;;;;;;;-0.34;89.69;101067.91;1749001;81;21140;-71
2021/01/05 04:02:20;;;;;;;22.25;11.50;;;;;;;-0.33;89.73;101070.87;1750074;79;21114;-72
2021/01/05 04:04:48;;;;;;;23.25;12.20;;;;;;;-0.32;89.75;101062.50;1759176;81;21136;-73
2021/01/05 04:07:16;;;;;;;23.62;13.13;;;;;;;-0.30;89.79;101052.62;1765710;81;21172;-71
2021/01/05 04:09:44;;;;;;;22.52;11.68;;;;;;;-0.31;89.80;101053.13;1752848;81;21934;-71
2021/01/05 04:12:11;;;;;;;22.65;13.78;;;;;;;-0.28;89.84;101046.72;1739645;81;21133;-71
2021/01/05 04:14:39;;;;;;;21.80;12.25;;;;;;;-0.26;89.86;101046.87;1738258;81;21163;-70
2021/01/05 04:17:07;;;;;;;19.30;10.63;;;;;;;-0.23;89.87;101052.28;1736384;81;21092;-71
2021/01/05 04:19:34;;;;;;;24.15;12.65;;;;;;;-0.20;89.92;101047.15;1729529;81;21163;-71
2021/01/05 04:22:02;;;;;;;20.02;11.48;;;;;;;-0.20;89.88;101053.22;1736119;81;21642;-71
2021/01/05 04:24:31;;;;;;;21.33;12.18;;;;;;;-0.18;89.89;101053.87;1737360;82;21135;-72
2021/01/05 04:26:59;;;;;;;22.85;12.28;;;;;;;-0.17;89.86;101061.25;1736022;82;21112;-71
2021/01/05 04:29:28;;;;;;;21.45;12.35;;;;;;;-0.19;89.85;101054.05;1732501;81;21112;-71
2021/01/05 04:31:55;;;;;;;19.85;11.60;;;;;;;-0.18;89.84;101051.74;1732423;81;21197;-71
2021/01/05 04:34:23;;;;;;;23.18;12.98;;;;;;;-0.17;89.84;101052.87;1736863;82;21387;-71
2021/01/05 04:36:51;;;;;;;18.98;10.25;;;;;;;-0.16;89.89;101038.77;1734398;81;21579;-71
2021/01/05 04:39:19;;;;;;;17.40;10.38;;;;;;;-0.17;89.82;101034.99;1727246;81;21183;-72
2021/01/05 04:42:06;;;;;;;20.35;11.22;;;;;;;-0.20;89.76;101026.96;1731883;82;21175;-71
2021/01/05 04:44:40;;;;;;;18.67;10.38;;;;;;;-0.21;89.77;101027.96;1729677;81;21182;-72
2021/01/05 04:47:57;;;;;;;19.95;10.45;;;;;;;-0.24;89.78;101027.00;1736900;81;21435;-72
2021/01/05 04:50:42;;;;;;;22.90;11.33;;;;;;;-0.27;89.81;101036.03;1731704;82;21247;-72
2021/01/05 04:53:23;;;;;;;18.87;10.57;;;;;;;-0.18;89.87;101038.62;1841705;77;22731;-73
2021/01/05 04:56:08;;;;;;;18.65;10.40;;;;;;;-0.22;89.90;101039.97;1816757;78;21089;-72
2021/01/05 04:58:50;;;;;;;19.80;11.00;;;;;;;-0.22;89.90;101036.84;1817692;77;21265;-71
2021/01/05 05:01:25;;;;;;;19.15;11.12;;;;;;;-0.20;89.94;101035.34;1816305;77;21088;-70
2021/01/05 05:04:21;;;;;;;17.82;11.43;;;;;;;-0.21;89.87;101032.40;1841701;77;21122;-72
2021/01/05 05:06:58;;;;;;;19.95;10.93;;;;;;;-0.25;89.84;101039.31;1841568;76;21136;-71
2021/01/05 05:09:47;;;;;;;19.00;10.80;;;;;;;-0.22;89.88;101028.15;1893508;74;23989;-73
2021/01/05 05:12:41;;;;;;;17.20;10.60;;;;;;;-0.28;89.84;101039.66;1877253;75;21629;-72
2021/01/05 05:15:46;;;;;;;23.50;13.70;;;;;;;-0.29;89.89;101034.09;1863264;75;21625;-72
2021/01/05 05:18:45;;;;;;;20.00;11.40;;;;;;;-0.31;89.95;101036.06;1807830;79;21512;-72
2021/01/05 05:21:18;;;;;;;22.35;12.28;;;;;;;-0.31;89.99;101029.50;1725820;80;21192;-72
2021/01/05 05:24:03;;;;;;;22.55;13.10;;;;;;;-0.30;90.03;101035.06;1792999;78;21180;-71
2021/01/05 05:26:46;;;;;;;17.40;10.72;;;;;;;-0.32;90.03;101027.06;1801492;77;21127;-72
2021/01/05 05:29:48;;;;;;;22.70;12.93;;;;;;;-0.33;90.05;101024.09;1827437;77;21379;-70
2021/01/05 05:32:24;;;;;;;19.65;12.00;;;;;;;-0.33;90.10;101013.59;1811761;77;21163;-72
2021/01/05 05:35:18;;;;;;;24.35;14.10;;;;;;;-0.28;90.17;101008.16;1826543;77;21608;-71
2021/01/05 05:38:05;;;;;;;17.23;11.15;;;;;;;-0.28;90.14;101008.16;1796213;79;21156;-72
2021/01/05 05:41:02;;;;;;;25.48;14.03;;;;;;;-0.26;90.12;101020.63;1796569;78;22327;-70
2021/01/05 05:44:00;;;;;;;21.82;12.47;;;;;;;-0.25;90.12;101018.31;1808096;77;21215;-71
2021/01/05 05:46:41;;;;;;;19.23;11.03;;;;;;;-0.24;90.16;101011.25;1804710;78;21615;-71
2021/01/05 05:49:48;;;;;;;18.75;10.85;;;;;;;-0.21;90.15;101017.96;1813575;79;21550;-71
2021/01/05 05:52:58;;;;;;;20.82;11.20;;;;;;;-0.21;90.16;101017.46;1799197;78;21666;-71
2021/01/05 05:55:47;;;;;;;21.20;11.10;;;;;;;-0.25;90.20;101009.13;1812488;77;21156;-71
2021/01/05 05:58:18;;;;;;;18.82;10.93;;;;;;;-0.23;90.20;101014.21;1789041;78;21362;-71
2021/01/05 06:00:52;;;;;;;22.82;13.13;;;;;;;-0.22;90.22;101021.59;1795114;78;21124;-71
2021/01/05 06:03:22;;;;;;;22.80;13.22;;;;;;;-0.22;90.19;101023.71;1829885;77;21116;-71
2021/01/05 06:05:50;;;;;;;19.37;11.50;;;;;;;-0.21;90.22;101014.84;1833272;77;21066;-72
2021/01/05 06:08:19;;;;;;;24.98;14.85;;;;;;;-0.22;90.19;101013.72;1820557;77;21120;-71
2021/01/05 06:10:47;;;;;;;22.70;13.60;;;;;;;-0.21;90.21;101012.71;1808616;77;22217;-71
2021/01/05 06:13:17;;;;;;;23.90;13.80;;;;;;;-0.20;90.25;101010.40;1781686;80;21211;-71
2021/01/05 06:15:45;;;;;;;20.15;12.50;;;;;;;-0.18;90.24;101015.80;1779415;79;21100;-71
2021/01/05 06:18:15;;;;;;;21.55;12.55;;;;;;;-0.16;90.22;101010.39;1785891;79;21129;-72
2021/01/05 06:20:43;;;;;;;22.37;12.90;;;;;;;-0.16;90.20;101012.52;1780321;79;21220;-73
2021/01/05 06:23:11;;;;;;;21.60;13.32;;;;;;;-0.17;90.15;101010.86;1782931;80;21406;-71
2021/01/05 06:25:39;;;;;;;23.05;14.40;;;;;;;-0.16;90.13;101005.14;1802511;78;21200;-72
2021/01/05 06:28:06;;;;;;;22.95;13.40;;;;;;;-0.17;90.11;101008.23;1821356;78;21197;-72
2021/01/05 06:30:34;;;;;;;23.80;13.75;;;;;;;-0.17;90.08;101012.67;1801945;79;21061;-72
2021/01/05 06:33:02;;;;;;;25.08;15.08;;;;;;;-0.19;90.08;101012.05;1782506;78;21666;-71
2021/01/05 06:35:31;;;;;;;23.38;14.40;;;;;;;-0.19;90.07;101008.92;1762793;80;21141;-72
2021/01/05 06:38:01;;;;;;;19.48;12.50;;;;;;;-0.17;90.10;101003.48;1780256;79;21140;-72
2021/01/05 06:40:30;;;;;;;24.20;14.73;;;;;;;-0.16;90.09;101006.45;1813793;78;21164;-71
2021/01/05 06:42:59;;;;;;;21.82;13.75;;;;;;;-0.17;90.03;101010.05;1808233;78;21572;-71
2021/01/05 06:45:30;;;;;;;22.87;13.80;;;;;;;-0.17;90.04;101002.17;1813257;78;21169;-71
2021/01/05 06:47:58;;;;;;;22.20;13.43;;;;;;;-0.15;90.02;101000.20;1814951;78;22300;-71
2021/01/05 06:50:30;;;;;;;19.90;11.70;;;;;;;-0.17;90.02;101004.30;1807202;79;21191;-71
2021/01/05 06:52:59;;;;;;;20.75;12.50;;;;;;;-0.15;90.03;101012.02;1781245;79;21651;-72
2021/01/05 06:55:26;;;;;;;23.55;14.43;;;;;;;-0.13;90.02;101012.64;1766658;79;21192;-72
2021/01/05 06:57:54;;;;;;;26.60;15.23;;;;;;;-0.12;89.96;101010.36;1795378;79;21168;-71
2021/01/05 07:00:27;;;;;;;25.55;14.93;;;;;;;-0.12;89.91;101006.41;1785242;79;21298;-71
2021/01/05 07:02:56;;;;;;;19.82;12.70;;;;;;;-0.09;89.86;101022.63;1807796;78;21128;-71
2021/01/05 07:05:23;;;;;;;21.35;12.78;;;;;;;-0.05;89.91;101020.47;1809204;79;21179;-71
2021/01/05 07:07:51;;;;;;;26.40;15.75;;;;;;;-0.02;89.88;101024.88;1809467;79;21227;-73
2021/01/05 07:10:20;;;;;;;21.33;12.73;;;;;;;0.02;89.89;101020.08;1774888;79;21116;-71
2021/01/05 07:12:48;;;;;;;23.20;14.28;;;;;;;0.06;89.85;101018.73;1781220;79;21269;-71
2021/01/05 07:15:18;;;;;;;22.73;13.53;;;;;;;0.08;89.79;101020.70;1774237;79;21188;-72
2021/01/05 07:17:46;;;;;;;28.23;17.30;;;;;;;0.08;89.68;101015.44;1805417;78;21164;-72
2021/01/05 07:20:17;;;;;;;24.40;16.15;;;;;;;0.06;89.58;101016.11;1795794;77;21116;-71
2021/01/05 07:22:44;;;;;;;25.57;15.30;;;;;;;0.05;89.50;101011.04;1806982;78;21136;-72
2021/01/05 07:25:13;;;;;;;27.30;16.07;;;;;;;0.03;89.46;101013.83;1803852;78;21482;-71
2021/01/05 07:27:43;;;;;;;29.57;17.60;;;;;;;0.01;89.44;101015.83;1784953;79;21176;-71
2021/01/05 07:30:13;;;;;;;29.05;17.48;;;;;;;0.03;89.37;101016.95;1805904;78;21481;-73
2021/01/05 07:32:41;;;;;;;27.90;16.60;;;;;;;-0.01;89.33;101011.24;1812220;78;21203;-72
2021/01/05 07:35:12;;;;;;;34.00;20.40;;;;;;;0.01;89.37;101017.65;1813526;78;21195;-71
2021/01/05 07:37:42;;;;;;;32.78;20.15;;;;;;;0.03;89.34;101016.95;1791525;79;21366;-71
2021/01/05 07:40:13;;;;;;;35.45;21.42;;;;;;;0.06;89.36;101019.23;1775975;79;21140;-71
2021/01/05 07:42:41;;;;;;;32.75;19.17;;;;;;;0.10;89.31;101017.41;1780200;79;21197;-71
2021/01/05 07:45:18;;;;;;;32.33;19.17;;;;;;;0.14;89.30;101017.37;1777277;80;21131;-71
2021/01/05 07:47:47;;;;;;;28.90;18.27;;;;;;;0.17;89.25;101022.77;1784347;79;21621;-72
2021/01/05 07:50:22;;;;;;;30.55;19.75;;;;;;;0.19;89.19;101017.64;1780184;79;21739;-71
2021/01/05 07:52:52;;;;;;;25.80;16.05;;;;;;;0.23;89.06;101018.09;1771390;79;21153;-72
2021/01/05 07:55:23;;;;;;;30.85;18.65;;;;;;;0.23;89.09;101025.50;1774998;79;21609;-71
2021/01/05 07:57:52;;;;;;;29.42;17.57;;;;;;;0.28;89.07;101025.46;1775128;79;21208;-71
2021/01/05 08:00:24;;;;;;;27.50;18.45;;;;;;;0.31;88.98;101021.17;1780171;79;21128;-72
2021/01/05 08:02:55;;;;;;;27.52;15.50;;;;;;;0.31;88.85;101026.42;1777943;79;21199;-72
2021/01/05 08:05:26;;;;;;;24.47;14.70;;;;;;;0.31;88.81;101017.22;1775999;79;21143;-71
2021/01/05 08:07:56;;;;;;;26.30;17.35;;;;;;;0.31;88.78;101017.22;1815343;79;21120;-73
2021/01/05 08:10:29;;;;;;;28.73;16.62;;;;;;;0.34;88.77;101011.62;1792333;79;21576;-72
2021/01/05 08:12:57;;;;;;;;;;;;;;;0.35;88.61;101017.18;1785697;79;21168;-72
2021/01/05 08:15:29;;;;;;;25.68;15.75;;;;;;;0.34;88.48;101006.36;1777181;78;21370;-72
2021/01/05 08:17:58;;;;;;;24.32;14.33;;;;;;;0.31;88.43;100999.65;1792727;79;21161;-72
2021/01/05 08:20:29;;;;;;;22.62;13.90;;;;;;;0.30;88.29;100999.84;1798096;79;21148;-72
2021/01/05 08:22:58;;;;;;;22.17;14.13;;;;;;;0.27;88.24;100987.87;1788732;78;21188;-73
2021/01/05 08:25:26;;;;;;;25.45;14.50;;;;;;;0.27;88.22;100988.38;1793834;78;21525;-72
2021/01/05 08:27:54;;;;;;;25.45;15.95;;;;;;;0.25;88.16;100983.78;1784178;78;21369;-72
2021/01/05 08:30:25;;;;;;;24.63;16.27;;;;;;;0.25;88.16;100983.78;1788735;78;21085;-72
2021/01/05 08:32:53;;;;;;;25.88;16.95;;;;;;;0.26;88.20;100986.72;1793165;78;21132;-72
2021/01/05 08:35:23;;;;;;;23.67;14.68;;;;;;;0.29;88.22;100975.85;1789314;78;21476;-71
2021/01/05 08:37:51;;;;;;;22.35;13.68;;;;;;;0.30;88.19;100967.80;1794871;79;21052;-71
2021/01/05 08:40:27;;;;;;;22.00;13.62;;;;;;;0.32;88.16;100963.17;1795320;78;21358;-71
2021/01/05 08:42:56;;;;;;;23.77;14.73;;;;;;;0.35;88.14;100953.62;1780408;78;21604;-71
2021/01/05 08:45:28;;;;;;;24.63;15.60;;;;;;;0.35;88.06;100942.30;1794764;78;21144;-71
2021/01/05 08:47:55;;;;;;;21.62;13.75;;;;;;;0.35;88.01;100947.05;1808529;78;21121;-71
2021/01/05 08:50:31;;;;;;;23.62;14.63;;;;;;;0.39;88.03;100937.80;1794358;78;21159;-70
2021/01/05 08:53:07;;;;;;;23.90;14.83;;;;;;;0.41;87.92;100940.27;1774440;78;21780;-72
2021/01/05 08:55:41;;;;;;;25.20;15.32;;;;;;;0.42;87.89;100943.20;1789720;78;21595;-73
2021/01/05 08:58:09;;;;;;;22.95;14.40;;;;;;;0.46;87.91;100948.41;1789863;78;21116;-72
2021/01/05 09:00:37;;;;;;;22.30;13.68;;;;;;;0.50;87.85;100958.89;1752663;79;21168;-71
2021/01/05 09:03:06;;;;;;;23.45;15.15;;;;;;;0.52;87.73;100963.45;1792673;78;21116;-72
2021/01/05 09:05:36;;;;;;;18.50;11.70;;;;;;;0.56;87.73;100958.66;1787434;78;21310;-72
2021/01/05 09:08:05;;;;;;;23.45;14.15;;;;;;;0.65;87.70;100958.88;1790315;78;21203;-72
2021/01/05 09:10:35;;;;;;;20.62;12.75;;;;;;;0.68;87.58;100964.59;1786223;78;21516;-70
2021/01/05 09:13:02;;;;;;;15.50;10.32;;;;;;;0.68;87.38;100958.02;1782222;79;21161;-71
2021/01/05 09:15:30;;;;;;;17.77;11.65;;;;;;;0.69;87.19;100944.38;1792633;78;21538;-70
2021/01/05 09:18:02;;;;;;;19.30;11.33;;;;;;;0.67;87.02;100952.95;1783752;78;21309;-71
2021/01/05 09:20:27;;;;;;;18.73;11.65;;;;;;;0.64;86.95;100955.95;1788846;78;21558;-72
2021/01/05 09:22:55;;;;;;;14.98;9.60;;;;;;;0.59;86.89;100957.82;1787043;78;21140;-72
2021/01/05 09:25:23;;;;;;;19.45;11.22;;;;;;;0.62;86.92;100956.61;1786863;78;21151;-73
2021/01/05 09:27:52;;;;;;;19.27;11.33;;;;;;;0.60;86.92;100950.75;1800700;78;21183;-71
2021/01/05 09:30:22;;;;;;;21.25;12.28;;;;;;;0.63;86.96;100950.38;1793230;78;21217;-72
2021/01/05 09:32:50;;;;;;;17.65;10.03;;;;;;;0.63;86.87;100954.33;1797684;78;21184;-72
2021/01/05 09:35:18;;;;;;;17.95;10.70;;;;;;;0.63;86.87;100944.63;1794737;78;21159;-73
2021/01/05 09:37:47;;;;;;;16.55;9.85;;;;;;;0.65;86.94;100940.48;1793313;78;21160;-72
2021/01/05 09:40:16;;;;;;;17.87;10.00;;;;;;;0.65;86.92;100934.72;1810992;78;21140;-73
2021/01/05 09:42:45;;;;;;;15.75;10.03;;;;;;;0.65;86.94;100920.77;1781663;79;21426;-73
2021/01/05 09:45:15;;;;;;;20.23;11.75;;;;;;;0.68;86.94;100917.27;1784889;79;21815;-72
2021/01/05 09:47:43;;;;;;;20.92;12.78;;;;;;;0.68;86.96;100913.33;1782308;79;21172;-72
2021/01/05 09:50:13;;;;;;;18.10;11.30;;;;;;;0.71;86.97;100900.32;1779690;79;21184;-72
2021/01/05 09:52:41;;;;;;;20.05;12.58;;;;;;;0.72;86.91;100894.56;1797427;78;21171;-72
2021/01/05 09:55:11;;;;;;;19.75;12.20;;;;;;;0.69;86.93;100891.31;1799093;78;21256;-72
2021/01/05 09:57:38;;;;;;;22.67;13.13;;;;;;;0.71;86.96;100897.69;1778463;79;21175;-71
2021/01/05 10:00:09;;;;;;;20.43;12.30;;;;;;;0.71;86.94;100892.44;1774350;79;22204;-72
2021/01/05 10:02:37;;;;;;;22.70;12.93;;;;;;;0.74;86.96;100885.50;1794147;78;21449;-72
2021/01/05 10:05:07;;;;;;;18.40;10.93;;;;;;;0.75;86.89;100877.11;1793340;78;21180;-72
2021/01/05 10:07:36;;;;;;;17.42;11.33;;;;;;;0.74;86.90;100881.55;1793020;78;21213;-73
2021/01/05 10:10:07;;;;;;;23.55;14.53;;;;;;;0.76;86.94;100887.92;1799291;77;21205;-72
2021/01/05 10:12:34;;;;;;;19.55;12.20;;;;;;;0.76;86.96;100891.87;1813024;77;21153;-72
2021/01/05 10:15:06;;;;;;;21.55;14.30;;;;;;;0.79;87.01;100880.98;1773942;78;21203;-72
2021/01/05 10:17:33;;;;;;;23.15;15.15;;;;;;;0.84;87.08;100873.38;1806386;77;21147;-72
2021/01/05 10:20:03;;;;;;;26.35;16.27;;;;;;;0.88;87.04;100874.63;1805733;78;21490;-71
2021/01/05 10:22:32;;;;;;;27.90;17.65;;;;;;;0.87;86.98;100879.58;1777498;77;21592;-72
2021/01/05 10:25:00;;;;;;;27.60;18.50;;;;;;;0.87;86.92;100876.45;1812577;77;21208;-72
2021/01/05 10:27:27;;;;;;;28.77;18.45;;;;;;;0.87;86.90;100869.88;1805095;78;21200;-71
2021/01/05 10:29:57;;;;;;;29.23;18.10;;;;;;;0.86;86.87;100868.25;1806695;79;21128;-71
2021/01/05 10:32:25;;;;;;;29.95;18.42;;;;;;;0.86;86.88;100852.47;1787104;79;21291;-72
2021/01/05 10:34:53;;;;;;;34.78;22.75;;;;;;;0.88;86.87;100853.59;1796608;78;21227;-72
2021/01/05 10:37:20;;;;;;;38.30;23.47;;;;;;;0.88;86.89;100853.59;1773091;79;21136;-71
2021/01/05 10:39:50;;;;;;;29.52;18.75;;;;;;;0.85;86.85;100844.75;1774734;79;21660;-71
2021/01/05 10:42:18;;;;;;;31.87;20.60;;;;;;;0.80;86.86;100841.38;1782774;79;21171;-71
2021/01/05 10:44:55;;;;;;;37.63;22.60;;;;;;;0.82;86.90;100849.06;1774541;79;21384;-72
2021/01/05 10:47:24;;;;;;;32.80;20.32;;;;;;;0.81;86.93;100848.76;1780154;77;21175;-73
2021/01/05 10:49:54;;;;;;;32.40;20.02;;;;;;;0.80;86.98;100832.68;1783131;79;21058;-72
2021/01/05 10:52:23;;;;;;;33.92;20.80;;;;;;;0.82;86.99;100835.41;1784483;79;21483;-71
2021/01/05 10:54:52;;;;;;;34.05;21.73;;;;;;;0.87;87.00;100826.98;1812416;77;21154;-71
2021/01/05 10:57:21;;;;;;;38.15;23.15;;;;;;;0.87;87.00;100827.80;1809230;78;21357;-72
2021/01/05 10:59:48;;;;;;;38.23;22.75;;;;;;;0.87;86.96;100848.83;1811393;78;21136;-72
2021/01/05 11:02:16;;;;;;;34.95;21.60;;;;;;;0.90;86.98;100845.02;1808183;77;21638;-72
2021/01/05 11:04:46;;;;;;;35.68;21.82;;;;;;;0.94;86.99;100833.13;1809322;78;21105;-72
2021/01/05 11:07:15;;;;;;;42.25;23.98;;;;;;;0.97;86.99;100816.16;1808268;78;21191;-72
2021/01/05 11:09:44;;;;;;;40.10;24.20;;;;;;;0.98;86.94;100810.70;1805593;77;21369;-72
2021/01/05 11:12:22;;;;;;;36.53;21.55;;;;;;;0.98;86.81;100809.89;1806770;77;21096;-71
2021/01/05 11:14:52;;;;;;;39.65;23.65;;;;;;;0.95;86.73;100805.81;1813800;77;21612;-73
2021/01/05 11:17:21;;;;;;;40.75;23.45;;;;;;;0.92;86.77;100816.70;1810138;77;21187;-71
2021/01/05 11:19:49;;;;;;;36.55;21.75;;;;;;;0.91;86.64;100817.72;1803115;79;21164;-71
2021/01/05 11:22:18;;;;;;;41.10;23.57;;;;;;;0.90;86.62;100821.36;1787635;77;21358;-71
2021/01/05 11:24:47;;;;;;;39.83;21.55;;;;;;;0.90;86.56;100820.04;1803820;78;21215;-71
2021/01/05 11:27:17;;;;;;;40.65;22.13;;;;;;;0.85;86.45;100810.06;1783609;78;21176;-71
2021/01/05 11:29:46;;;;;;;42.33;23.15;;;;;;;0.82;86.32;100822.27;1802573;77;21136;-72
2021/01/05 11:32:26;;;;;;;35.83;19.57;;;;;;;0.84;86.26;100826.05;1774216;80;23261;-72
2021/01/05 11:34:54;;;;;;;41.15;22.70;;;;;;;0.79;86.26;100833.66;1755971;81;21115;-72
2021/01/05 11:37:22;;;;;;;34.08;19.70;;;;;;;0.79;86.25;100821.35;1747850;81;21378;-73
2021/01/05 11:39:52;;;;;;;32.78;19.65;;;;;;;0.80;86.16;100819.03;1747329;80;21159;-72
2021/01/05 11:42:23;;;;;;;37.83;22.20;;;;;;;0.85;86.11;100817.14;1756005;81;21522;-72
2021/01/05 11:44:51;;;;;;;33.98;19.45;;;;;;;0.85;85.97;100815.83;1738662;81;21135;-72
2021/01/05 11:47:22;;;;;;;44.35;25.27;;;;;;;0.82;85.97;100813.06;1743390;80;21807;-72
2021/01/05 11:49:51;;;;;;;36.85;20.90;;;;;;;0.83;85.95;100813.40;1736735;81;22235;-73
2021/01/05 11:52:19;;;;;;;40.43;22.98;;;;;;;0.86;85.95;100820.92;1727423;81;21166;-72
2021/01/05 11:54:47;;;;;;;45.08;23.12;;;;;;;0.85;85.92;100814.01;1731139;81;21168;-71
2021/01/05 11:57:15;;;;;;;39.67;23.77;;;;;;;0.84;85.87;100808.95;1745059;81;21057;-72